createdAt,value
2022-10-12T00:00:39.794Z,26.47
2022-10-12T00:03:07.830Z,26.50
2022-10-12T00:05:35.815Z,26.60
2022-10-12T00:08:05.332Z,26.60
2022-10-12T00:10:33.248Z,26.80
2022-10-12T00:13:01.251Z,25.47
2022-10-12T00:15:29.255Z,25.57
2022-10-12T00:17:57.194Z,25.57
2022-10-12T00:20:25.139Z,26.10
2022-10-12T00:22:53.095Z,26.87
2022-10-12T00:25:22.524Z,26.77
2022-10-12T00:27:50.485Z,26.33
2022-10-12T00:30:18.846Z,26.70
2022-10-12T00:32:46.856Z,27.83
2022-10-12T00:35:14.898Z,27.80
2022-10-12T00:37:42.948Z,28.07
2022-10-12T00:40:13.039Z,29.73
2022-10-12T00:42:42.354Z,28.97
2022-10-12T00:45:11.239Z,27.10
2022-10-12T00:47:42.813Z,26.37
2022-10-12T00:50:17.056Z,25.87
2022-10-12T00:52:51.187Z,25.80
2022-10-12T00:55:21.081Z,24.30
2022-10-12T00:57:52.425Z,23.90
2022-10-12T01:00:22.260Z,25.17
2022-10-12T01:02:53.246Z,25.40
2022-10-12T01:05:22.262Z,25.20
2022-10-12T01:07:50.583Z,24.43
2022-10-12T01:10:18.825Z,25.27
2022-10-12T01:12:50.680Z,24.60
2022-10-12T01:15:18.820Z,24.87
2022-10-12T01:18:01.110Z,23.30
2022-10-12T01:21:03.144Z,24.57
2022-10-12T01:24:03.649Z,26.10
2022-10-12T01:27:01.405Z,26.20
2022-10-12T01:29:53.452Z,27.43
2022-10-12T01:32:26.141Z,26.47
2022-10-12T01:35:00.135Z,27.53
2022-10-12T01:37:36.485Z,26.77
2022-10-12T01:40:09.034Z,25.07
2022-10-12T01:42:41.414Z,25.90
2022-10-12T01:45:13.509Z,25.93
2022-10-12T01:47:43.949Z,24.27
2022-10-12T01:50:15.405Z,24.97
2022-10-12T01:52:52.879Z,26.00
2022-10-12T01:55:30.047Z,27.33
2022-10-12T01:58:17.322Z,25.77
2022-10-12T02:00:57.109Z,23.90
2022-10-12T02:03:34.949Z,27.37
2022-10-12T02:06:08.318Z,26.80
2022-10-12T02:08:43.011Z,27.57
2022-10-12T02:11:13.688Z,26.43
2022-10-12T02:13:45.034Z,26.57
2022-10-12T02:16:18.329Z,27.27
2022-10-12T02:18:49.547Z,25.80
2022-10-12T02:21:22.350Z,26.43
2022-10-12T02:23:53.763Z,26.10
2022-10-12T02:26:23.032Z,27.43
2022-10-12T02:28:51.701Z,27.53
2022-10-12T02:31:29.927Z,26.37
2022-10-12T02:34:02.369Z,28.83
2022-10-12T02:36:37.874Z,25.77
2022-10-12T02:39:11.844Z,25.27
2022-10-12T02:41:45.973Z,26.03
2022-10-12T02:44:17.301Z,27.27
2022-10-12T02:46:49.285Z,26.80
2022-10-12T02:49:18.633Z,26.60
2022-10-12T02:51:48.261Z,27.73
2022-10-12T02:54:16.539Z,27.77
2022-10-12T02:56:46.051Z,28.10
2022-10-12T02:59:14.549Z,30.20
2022-10-12T03:01:42.693Z,27.63
2022-10-12T03:04:12.033Z,29.13
2022-10-12T03:06:40.091Z,28.37
2022-10-12T03:09:08.137Z,28.23
2022-10-12T03:11:37.736Z,29.47
2022-10-12T03:14:05.791Z,30.03
2022-10-12T03:16:33.755Z,29.87
2022-10-12T03:19:01.766Z,28.23
2022-10-12T03:21:31.118Z,28.87
2022-10-12T03:23:59.152Z,29.27
2022-10-12T03:26:27.284Z,29.37
2022-10-12T03:28:55.504Z,29.07
2022-10-12T03:31:23.649Z,29.47
2022-10-12T03:33:51.668Z,30.90
2022-10-12T03:36:19.705Z,29.13
2022-10-12T03:38:49.085Z,29.33
2022-10-12T03:41:17.029Z,29.00
2022-10-12T03:43:45.824Z,27.20
2022-10-12T03:46:13.912Z,29.43
2022-10-12T03:48:42.004Z,30.67
2022-10-12T03:51:09.978Z,30.97
2022-10-12T03:53:41.775Z,30.23
2022-10-12T03:56:14.463Z,30.40
2022-10-12T03:58:42.418Z,29.83
2022-10-12T04:01:10.461Z,30.63
2022-10-12T04:03:38.510Z,30.40
2022-10-12T04:06:07.094Z,30.30
2022-10-12T04:08:35.126Z,29.93
2022-10-12T04:11:03.160Z,30.60
2022-10-12T04:13:32.548Z,31.43
2022-10-12T04:16:03.608Z,31.17
2022-10-12T04:18:31.998Z,30.77
2022-10-12T04:21:00.692Z,30.27
2022-10-12T04:23:29.149Z,31.37
2022-10-12T04:25:57.091Z,34.23
2022-10-12T04:28:25.111Z,31.60
2022-10-12T04:30:54.569Z,31.10
2022-10-12T04:33:22.525Z,31.17
2022-10-12T04:35:50.555Z,33.13
2022-10-12T04:38:18.727Z,32.00
2022-10-12T04:40:47.982Z,33.33
2022-10-12T04:43:16.620Z,32.80
2022-10-12T04:45:45.028Z,33.17
2022-10-12T04:48:14.344Z,32.67
2022-10-12T04:50:42.320Z,32.70
2022-10-12T04:53:10.318Z,33.13
2022-10-12T04:55:39.051Z,31.63
2022-10-12T04:58:06.980Z,36.87
2022-10-12T05:00:35.091Z,39.70
2022-10-12T05:03:03.036Z,37.47
2022-10-12T05:05:34.426Z,38.93
2022-10-12T05:08:02.486Z,41.27
2022-10-12T05:10:30.599Z,39.40
2022-10-12T05:12:58.680Z,37.93
2022-10-12T05:15:26.651Z,46.97
2022-10-12T05:17:54.688Z,50.77
2022-10-12T05:20:22.738Z,49.53
2022-10-12T05:22:52.099Z,49.30
2022-10-12T05:25:20.585Z,49.30
2022-10-12T05:27:48.656Z,51.43
2022-10-12T05:30:16.891Z,49.10
2022-10-12T05:32:44.939Z,46.37
2022-10-12T05:35:12.898Z,45.00
2022-10-12T05:37:41.228Z,47.17
2022-10-12T05:40:11.794Z,47.03
2022-10-12T05:42:40.125Z,45.23
2022-10-12T05:45:09.385Z,45.77
2022-10-12T05:47:37.827Z,41.53
2022-10-12T05:50:06.837Z,37.03
2022-10-12T05:52:34.984Z,35.73
2022-10-12T05:55:03.177Z,36.27
2022-10-12T05:57:32.705Z,36.27
2022-10-12T06:00:00.655Z,35.13
2022-10-12T06:02:28.717Z,35.37
2022-10-12T06:04:56.681Z,33.50
2022-10-12T06:07:24.774Z,31.13
2022-10-12T06:09:52.711Z,34.50
2022-10-12T06:12:21.092Z,34.30
2022-10-12T06:14:50.497Z,36.43
2022-10-12T06:17:18.447Z,36.63
2022-10-12T06:19:46.513Z,36.57
2022-10-12T06:22:14.469Z,35.83
2022-10-12T06:24:42.477Z,35.67
2022-10-12T06:27:10.466Z,36.23
2022-10-12T06:29:38.501Z,33.23
2022-10-12T06:32:07.784Z,31.90
2022-10-12T06:34:35.763Z,31.87
2022-10-12T06:37:03.731Z,32.07
2022-10-12T06:39:31.868Z,30.90
2022-10-12T06:41:59.889Z,30.47
2022-10-12T06:44:29.633Z,31.73
2022-10-12T06:46:57.699Z,32.07
2022-10-12T06:49:27.111Z,29.87
2022-10-12T06:51:55.094Z,28.73
2022-10-12T06:54:23.038Z,29.57
2022-10-12T06:56:53.356Z,30.63
2022-10-12T06:59:25.020Z,29.73
2022-10-12T07:01:52.970Z,29.90
2022-10-12T07:04:20.915Z,28.47
2022-10-12T07:06:50.623Z,30.23
2022-10-12T07:09:18.787Z,28.17
2022-10-12T07:11:46.934Z,26.33
2022-10-12T07:14:14.921Z,26.77
2022-10-12T07:16:42.880Z,27.97
2022-10-12T07:19:11.052Z,24.83
2022-10-12T07:21:39.033Z,23.40
2022-10-12T07:24:08.941Z,23.80
2022-10-12T07:26:36.928Z,21.60
2022-10-12T07:29:04.919Z,20.47
2022-10-12T07:31:32.888Z,19.53
2022-10-12T07:34:00.877Z,17.23
2022-10-12T07:36:47.319Z,16.37
2022-10-12T07:39:18.446Z,16.63
2022-10-12T07:41:46.549Z,16.13
2022-10-12T07:44:14.740Z,15.90
2022-10-12T07:46:42.954Z,15.53
2022-10-12T07:49:12.849Z,15.47
2022-10-12T07:51:40.932Z,15.00
2022-10-12T07:54:09.660Z,15.53
2022-10-12T07:56:39.289Z,16.23
2022-10-12T07:59:07.463Z,15.17
2022-10-12T08:01:35.895Z,16.17
2022-10-12T08:04:03.987Z,15.80
2022-10-12T08:06:34.005Z,16.97
2022-10-12T08:09:02.807Z,15.73
2022-10-12T08:11:30.942Z,17.77
2022-10-12T08:14:00.433Z,17.00
2022-10-12T08:16:28.461Z,16.40
2022-10-12T08:18:56.473Z,18.43
2022-10-12T08:21:24.450Z,20.43
2022-10-12T08:23:52.469Z,18.47
2022-10-12T08:26:20.447Z,18.90
2022-10-12T08:28:48.533Z,18.87
2022-10-12T08:31:19.498Z,18.43
2022-10-12T08:33:47.504Z,18.87
2022-10-12T08:36:15.565Z,22.33
2022-10-12T08:38:45.486Z,24.80
2022-10-12T08:41:24.705Z,27.07
2022-10-12T08:44:19.864Z,25.40
2022-10-12T08:46:50.254Z,29.43
2022-10-12T08:49:21.344Z,25.10
2022-10-12T08:51:52.874Z,32.50
2022-10-12T08:54:23.572Z,29.30
2022-10-12T08:56:55.227Z,27.17
2022-10-12T08:59:23.704Z,24.97
2022-10-12T09:02:07.033Z,27.53
2022-10-12T09:04:45.313Z,29.53
2022-10-12T09:07:18.453Z,37.40
2022-10-12T09:10:14.247Z,35.90
2022-10-12T09:12:53.445Z,33.97
2022-10-12T09:15:23.789Z,31.03
2022-10-12T09:17:54.892Z,31.40
2022-10-12T09:20:24.726Z,34.00
2022-10-12T09:22:56.596Z,37.27
2022-10-12T09:25:26.962Z,31.30
2022-10-12T09:27:58.575Z,38.23
2022-10-12T09:30:30.929Z,31.63
2022-10-12T09:33:12.870Z,37.20
2022-10-12T09:35:42.159Z,34.23
2022-10-12T09:38:11.814Z,39.70
2022-10-12T09:40:41.001Z,34.20
2022-10-12T09:43:09.941Z,30.90
2022-10-12T09:45:39.402Z,36.53
2022-10-12T09:48:15.468Z,32.77
2022-10-12T09:50:46.840Z,29.10
2022-10-12T09:53:21.458Z,29.43
2022-10-12T09:55:59.035Z,22.03
2022-10-12T09:58:29.163Z,23.10
2022-10-12T10:01:21.613Z,20.77
2022-10-12T10:04:07.071Z,24.50
2022-10-12T10:06:35.934Z,26.57
2022-10-12T10:09:04.149Z,24.37
2022-10-12T10:11:32.675Z,24.03
2022-10-12T10:14:02.857Z,24.37
2022-10-12T10:16:31.821Z,21.73
2022-10-12T10:19:03.122Z,19.80
2022-10-12T10:21:34.325Z,22.47
2022-10-12T10:24:04.135Z,17.10
2022-10-12T10:26:52.838Z,14.17
2022-10-12T10:29:35.624Z,12.25
2022-10-12T10:32:12.553Z,8.65
2022-10-12T10:34:42.768Z,7.85
2022-10-12T10:37:20.543Z,8.52
2022-10-12T10:39:50.999Z,8.93
2022-10-12T10:42:21.653Z,6.32
2022-10-12T10:44:52.555Z,6.35
2022-10-12T10:47:20.855Z,7.47
2022-10-12T10:49:55.568Z,10.63
2022-10-12T10:52:26.507Z,7.70
2022-10-12T10:55:17.026Z,6.72
2022-10-12T10:57:49.494Z,4.38
2022-10-12T11:00:38.006Z,6.55
2022-10-12T11:03:14.280Z,5.60
2022-10-12T11:05:47.807Z,5.50
2022-10-12T11:08:21.319Z,7.13
2022-10-12T11:10:55.889Z,3.90
2022-10-12T11:13:29.549Z,7.38
2022-10-12T11:16:04.218Z,8.20
2022-10-12T11:18:40.921Z,8.25
2022-10-12T11:21:16.695Z,5.70
2022-10-12T11:23:50.457Z,5.40
2022-10-12T11:26:25.898Z,7.03
2022-10-12T11:28:55.854Z,7.68
2022-10-12T11:31:27.768Z,5.85
2022-10-12T11:34:01.319Z,5.72
2022-10-12T11:36:33.429Z,5.65
2022-10-12T11:39:07.187Z,3.88
2022-10-12T11:42:09.332Z,4.70
2022-10-12T11:44:42.330Z,6.13
2022-10-12T11:47:17.350Z,5.38
2022-10-12T11:49:55.095Z,4.47
2022-10-12T11:52:28.923Z,6.32
2022-10-12T11:55:01.798Z,7.80
2022-10-12T11:57:35.093Z,4.70
2022-10-12T12:00:06.424Z,5.93
2022-10-12T12:02:43.578Z,7.10
2022-10-12T12:05:16.579Z,7.35
2022-10-12T12:07:51.263Z,7.68
2022-10-12T12:10:54.347Z,6.50
2022-10-12T12:13:27.266Z,6.07
2022-10-12T12:16:34.273Z,6.75
2022-10-12T12:19:36.533Z,5.93
2022-10-12T12:22:19.893Z,5.80
2022-10-12T12:25:11.989Z,4.85
2022-10-12T12:27:43.034Z,5.13
2022-10-12T12:30:34.421Z,4.65
2022-10-12T12:33:04.509Z,4.15
2022-10-12T12:35:38.645Z,4.28
2022-10-12T12:38:25.104Z,5.07
2022-10-12T12:41:13.832Z,8.23
2022-10-12T12:44:04.170Z,5.13
2022-10-12T12:47:39.970Z,5.55
2022-10-12T12:50:00.493Z,5.75
2022-10-12T12:52:31.264Z,5.18
2022-10-12T12:55:20.324Z,7.65
2022-10-12T12:58:04.933Z,8.73
2022-10-12T13:00:39.405Z,5.38
2022-10-12T13:03:40.662Z,5.13
2022-10-12T13:06:42.922Z,6.93
2022-10-12T13:09:46.976Z,6.20
2022-10-12T13:12:42.755Z,4.63
2022-10-12T13:15:38.273Z,4.75
2022-10-12T13:18:47.586Z,6.32
2022-10-12T13:21:21.445Z,5.53
2022-10-12T13:23:52.291Z,5.07
2022-10-12T13:26:26.478Z,9.30
2022-10-12T13:28:56.895Z,5.00
2022-10-12T13:31:33.655Z,3.92
2022-10-12T13:34:08.106Z,6.72
2022-10-12T13:36:47.728Z,5.70
2022-10-12T13:39:18.084Z,7.85
2022-10-12T13:41:47.670Z,7.55
2022-10-12T13:44:23.237Z,5.32
2022-10-12T13:46:56.469Z,5.70
2022-10-12T13:49:27.485Z,4.38
2022-10-12T13:51:57.532Z,4.05
2022-10-12T13:54:28.212Z,4.47
2022-10-12T13:56:59.224Z,4.78
2022-10-12T13:59:29.629Z,4.45
2022-10-12T14:02:01.170Z,23.27
2022-10-12T14:04:31.271Z,7.25
2022-10-12T14:07:04.095Z,6.15
2022-10-12T14:09:40.497Z,4.57
2022-10-12T14:12:10.683Z,5.63
2022-10-12T14:14:41.163Z,4.38
2022-10-12T14:17:15.906Z,6.03
2022-10-12T14:19:47.933Z,3.72
2022-10-12T14:22:22.235Z,5.15
2022-10-12T14:24:50.799Z,8.20
2022-10-12T14:27:25.018Z,7.85
2022-10-12T14:29:57.429Z,6.65
2022-10-12T14:32:44.282Z,6.75
2022-10-12T14:35:24.845Z,6.75
2022-10-12T14:37:54.927Z,6.47
2022-10-12T14:40:40.657Z,5.82
2022-10-12T14:43:24.263Z,5.50
2022-10-12T14:45:53.125Z,6.90
2022-10-12T14:48:23.759Z,5.18
2022-10-12T14:50:52.561Z,5.47
2022-10-12T14:53:21.117Z,9.80
2022-10-12T14:55:52.262Z,5.70
2022-10-12T14:58:22.619Z,7.05
2022-10-12T15:00:50.740Z,5.80
2022-10-12T15:03:20.258Z,5.85
2022-10-12T15:05:49.680Z,12.65
2022-10-12T15:08:17.655Z,9.77
2022-10-12T15:10:47.000Z,10.50
2022-10-12T15:13:15.108Z,7.20
2022-10-12T15:15:46.215Z,10.80
2022-10-12T15:18:14.325Z,6.63
2022-10-12T15:20:46.896Z,7.57
2022-10-12T15:23:19.151Z,6.82
2022-10-12T15:25:51.429Z,8.20
2022-10-12T15:28:20.141Z,5.50
2022-10-12T15:31:15.358Z,6.75
2022-10-12T15:33:36.472Z,10.52
2022-10-12T15:36:04.757Z,7.25
2022-10-12T15:38:34.244Z,7.80
2022-10-12T15:41:02.263Z,8.88
2022-10-12T15:43:31.475Z,10.13
2022-10-12T15:46:00.422Z,12.10
2022-10-12T15:48:29.105Z,14.90
2022-10-12T15:50:57.388Z,12.77
2022-10-12T15:53:27.352Z,11.43
2022-10-12T15:55:57.195Z,10.55
2022-10-12T15:58:25.249Z,10.45
2022-10-12T16:00:53.619Z,9.73
2022-10-12T16:03:26.047Z,7.97
2022-10-12T16:05:54.866Z,8.88
2022-10-12T16:08:23.004Z,8.75
2022-10-12T16:10:51.643Z,8.90
2022-10-12T16:13:21.010Z,7.60
2022-10-12T16:15:49.032Z,6.43
2022-10-12T16:18:17.680Z,7.47
2022-10-12T16:20:51.106Z,7.60
2022-10-12T16:23:24.328Z,7.27
2022-10-12T16:25:52.658Z,10.80
2022-10-12T16:28:22.415Z,14.93
2022-10-12T16:30:50.837Z,14.83
2022-10-12T16:33:19.508Z,27.37
2022-10-12T16:35:47.878Z,26.27
2022-10-12T16:38:16.110Z,14.43
2022-10-12T16:40:44.093Z,23.10
2022-10-12T16:43:13.305Z,16.57
2022-10-12T16:45:42.702Z,14.20
2022-10-12T16:48:10.677Z,18.60
2022-10-12T16:50:40.974Z,15.93
2022-10-12T16:53:11.119Z,15.53
2022-10-12T16:55:40.155Z,9.97
2022-10-12T16:58:08.093Z,13.80
2022-10-12T17:00:36.829Z,18.07
2022-10-12T17:03:06.262Z,14.97
2022-10-12T17:05:34.196Z,16.87
2022-10-12T17:08:02.175Z,14.10
2022-10-12T17:10:30.452Z,15.23
2022-10-12T17:12:58.416Z,17.33
2022-10-12T17:15:26.430Z,14.93
2022-10-12T17:17:54.449Z,16.80
2022-10-12T17:20:23.769Z,16.90
2022-10-12T17:22:51.735Z,24.57
2022-10-12T17:25:19.681Z,20.97
2022-10-12T17:27:50.659Z,24.63
2022-10-12T17:30:19.621Z,27.17
2022-10-12T17:32:47.719Z,20.40
2022-10-12T17:35:15.906Z,24.23
2022-10-12T17:37:45.277Z,20.60
2022-10-12T17:40:13.212Z,25.73
2022-10-12T17:42:41.241Z,23.10
2022-10-12T17:45:09.905Z,23.17
2022-10-12T17:47:39.520Z,18.43
2022-10-12T17:50:08.257Z,22.53
2022-10-12T17:52:39.643Z,18.97
2022-10-12T17:55:29.502Z,21.17
2022-10-12T17:57:57.771Z,23.40
2022-10-12T18:00:25.962Z,20.83
2022-10-12T18:02:54.079Z,23.40
2022-10-12T18:05:22.072Z,22.77
2022-10-12T18:07:50.046Z,25.60
2022-10-12T18:10:21.489Z,21.33
2022-10-12T18:12:51.498Z,24.87
2022-10-12T18:15:19.460Z,23.80
2022-10-12T18:17:47.532Z,25.97
2022-10-12T18:20:15.517Z,23.77
2022-10-12T18:22:43.570Z,23.60
2022-10-12T18:25:11.566Z,25.10
2022-10-12T18:27:40.845Z,25.07
2022-10-12T18:30:10.105Z,22.10
2022-10-12T18:32:38.087Z,21.23
2022-10-12T18:35:07.228Z,23.97
2022-10-12T18:37:35.245Z,24.60
2022-10-12T18:40:03.159Z,22.27
2022-10-12T18:42:31.278Z,23.10
2022-10-12T18:45:00.653Z,22.77
2022-10-12T18:47:28.603Z,23.63
2022-10-12T18:49:56.668Z,21.07
2022-10-12T18:52:24.574Z,25.97
2022-10-12T18:54:52.514Z,21.53
2022-10-12T18:57:20.554Z,26.23
2022-10-12T18:59:51.325Z,24.47
2022-10-12T19:02:21.874Z,24.97
2022-10-12T19:04:50.495Z,25.07
2022-10-12T19:07:18.570Z,22.50
2022-10-12T19:09:46.490Z,25.30
2022-10-12T19:12:16.995Z,21.87
2022-10-12T19:14:45.223Z,23.70
2022-10-12T19:17:13.268Z,23.87
2022-10-12T19:19:42.754Z,23.53
2022-10-12T19:22:10.867Z,27.77
2022-10-12T19:24:38.812Z,21.40
2022-10-12T19:27:06.783Z,23.00
2022-10-12T19:29:34.736Z,22.20
2022-10-12T19:32:02.882Z,22.93
2022-10-12T19:34:30.852Z,24.07
2022-10-12T19:37:00.655Z,21.23
2022-10-12T19:39:28.730Z,28.83
2022-10-12T19:41:56.713Z,23.53
2022-10-12T19:44:24.838Z,27.00
2022-10-12T19:46:53.684Z,24.67
2022-10-12T19:49:21.906Z,25.60
2022-10-12T19:51:49.840Z,26.00
2022-10-12T19:54:19.770Z,28.47
2022-10-12T19:56:47.765Z,26.73
2022-10-12T19:59:15.801Z,26.53
2022-10-12T20:01:47.872Z,29.30
2022-10-12T20:04:16.611Z,26.50
2022-10-12T20:06:44.538Z,28.30
2022-10-12T20:09:12.933Z,26.40
2022-10-12T20:11:42.461Z,27.60
2022-10-12T20:14:11.728Z,25.43
2022-10-12T20:16:39.941Z,27.63
2022-10-12T20:19:08.131Z,26.27
2022-10-12T20:21:37.531Z,26.37
2022-10-12T20:24:05.853Z,28.90
2022-10-12T20:26:33.774Z,27.23
2022-10-12T20:29:03.152Z,29.27
2022-10-12T20:31:31.212Z,28.30
2022-10-12T20:33:59.344Z,27.43
2022-10-12T20:36:29.598Z,28.57
2022-10-12T20:38:59.100Z,29.00
2022-10-12T20:41:27.742Z,26.67
2022-10-12T20:43:57.345Z,26.60
2022-10-12T20:46:29.221Z,27.63
2022-10-12T20:48:59.307Z,30.80
2022-10-12T20:51:29.668Z,34.47
2022-10-12T20:54:00.887Z,32.20
2022-10-12T20:56:29.338Z,26.77
2022-10-12T20:58:57.354Z,28.57
2022-10-12T21:01:28.349Z,27.47
2022-10-12T21:03:56.756Z,28.20
2022-10-12T21:06:25.265Z,30.07
2022-10-12T21:08:54.869Z,33.63
2022-10-12T21:11:23.294Z,28.57
2022-10-12T21:13:51.640Z,30.43
2022-10-12T21:16:20.288Z,28.10
2022-10-12T21:18:49.626Z,28.37
2022-10-12T21:21:19.972Z,29.73
2022-10-12T21:23:54.157Z,31.37
2022-10-12T21:26:24.034Z,30.23
2022-10-12T21:28:52.250Z,30.60
2022-10-12T21:31:20.794Z,31.13
2022-10-12T21:33:50.113Z,29.97
2022-10-12T21:36:19.739Z,31.00
2022-10-12T21:38:48.088Z,29.97
2022-10-12T21:41:18.148Z,31.27
2022-10-12T21:43:46.229Z,31.50
2022-10-12T21:46:16.503Z,30.87
2022-10-12T21:48:44.738Z,32.13
2022-10-12T21:51:14.729Z,33.30
2022-10-12T21:53:42.981Z,32.20
2022-10-12T21:56:15.653Z,32.93
2022-10-12T21:58:44.260Z,31.47
2022-10-12T22:01:14.245Z,33.13
2022-10-12T22:03:43.111Z,33.13
2022-10-12T22:06:15.231Z,32.40
2022-10-12T22:08:43.269Z,33.17
2022-10-12T22:11:14.582Z,34.07
2022-10-12T22:13:42.705Z,33.43
2022-10-12T22:16:13.653Z,35.40
2022-10-12T22:18:42.150Z,34.47
2022-10-12T22:21:13.264Z,36.33
2022-10-12T22:23:43.420Z,35.33
2022-10-12T22:26:13.785Z,34.53
2022-10-12T22:28:50.131Z,34.43
2022-10-12T22:31:20.218Z,34.57
2022-10-12T22:33:48.813Z,36.57
2022-10-12T22:36:17.184Z,35.50
2022-10-12T22:38:46.605Z,37.20
2022-10-12T22:41:17.132Z,37.07
2022-10-12T22:43:48.226Z,35.47
2022-10-12T22:46:16.630Z,36.77
2022-10-12T22:48:44.803Z,36.67
2022-10-12T22:51:16.441Z,36.57
2022-10-12T22:53:44.410Z,34.67
2022-10-12T22:56:16.340Z,36.50
2022-10-12T22:58:44.477Z,35.73
2022-10-12T23:01:14.875Z,36.33
2022-10-12T23:03:43.348Z,36.00
2022-10-12T23:06:12.900Z,36.87
2022-10-12T23:08:41.563Z,37.73
2022-10-12T23:11:12.193Z,37.13
2022-10-12T23:13:42.105Z,36.43
2022-10-12T23:16:12.346Z,38.43
2022-10-12T23:18:40.914Z,36.10
2022-10-12T23:21:11.105Z,36.27
2022-10-12T23:23:40.465Z,35.57
2022-10-12T23:26:10.369Z,36.90
2022-10-12T23:28:38.664Z,37.57
2022-10-12T23:31:14.961Z,37.00
2022-10-12T23:33:43.139Z,36.63
2022-10-12T23:36:13.811Z,35.63
2022-10-12T23:38:42.862Z,37.97
2022-10-12T23:41:11.507Z,36.67
2022-10-12T23:43:39.551Z,36.77
2022-10-12T23:46:07.968Z,36.57
2022-10-12T23:48:37.365Z,37.87
2022-10-12T23:51:07.841Z,37.60
2022-10-12T23:53:36.496Z,36.77
2022-10-12T23:56:04.850Z,39.10
2022-10-12T23:58:32.865Z,38.57
